createdAt,value
2023-01-19T00:00:15.400Z,11.07
2023-01-19T00:02:43.318Z,10.80
2023-01-19T00:05:09.883Z,12.30
2023-01-19T00:07:36.225Z,10.90
2023-01-19T00:10:02.566Z,11.70
2023-01-19T00:12:29.228Z,11.57
2023-01-19T00:14:55.591Z,11.87
2023-01-19T00:17:21.966Z,11.30
2023-01-19T00:19:48.295Z,9.87
2023-01-19T00:22:14.919Z,11.20
2023-01-19T00:24:41.260Z,11.20
2023-01-19T00:27:07.663Z,12.43
2023-01-19T00:29:34.316Z,11.10
2023-01-19T00:32:01.722Z,11.80
2023-01-19T00:34:36.635Z,10.33
2023-01-19T00:37:04.065Z,11.37
2023-01-19T00:39:30.391Z,11.90
2023-01-19T00:42:15.619Z,11.50
2023-01-19T00:44:41.984Z,12.23
2023-01-19T00:47:08.408Z,11.57
2023-01-19T00:49:34.733Z,10.57
2023-01-19T00:52:01.098Z,12.07
2023-01-19T00:54:27.692Z,12.17
2023-01-19T00:56:54.168Z,12.20
2023-01-19T00:59:20.505Z,11.37
2023-01-19T01:01:47.075Z,12.53
2023-01-19T01:04:14.140Z,10.23
2023-01-19T01:06:40.570Z,11.73
2023-01-19T01:09:11.829Z,11.33
2023-01-19T01:11:40.023Z,12.97
2023-01-19T01:14:07.005Z,11.97
2023-01-19T01:16:33.523Z,10.60
2023-01-19T01:19:00.032Z,10.90
2023-01-19T01:21:26.460Z,12.10
2023-01-19T01:23:52.782Z,10.37
2023-01-19T01:26:19.268Z,11.63
2023-01-19T01:28:45.615Z,11.00
2023-01-19T01:31:12.272Z,12.80
2023-01-19T01:33:39.970Z,10.23
2023-01-19T01:36:08.159Z,12.10
2023-01-19T01:38:34.517Z,12.30
2023-01-19T01:41:00.871Z,11.47
2023-01-19T01:43:54.963Z,11.97
2023-01-19T01:46:21.436Z,11.40
2023-01-19T01:49:06.088Z,13.00
2023-01-19T01:51:37.514Z,11.20
2023-01-19T01:54:21.661Z,12.20
2023-01-19T01:56:51.527Z,11.23
2023-01-19T01:59:27.189Z,10.90
2023-01-19T02:02:15.980Z,12.07
2023-01-19T02:05:04.187Z,11.27
2023-01-19T02:08:05.380Z,11.17
2023-01-19T02:10:51.632Z,11.10
2023-01-19T02:13:22.572Z,12.17
2023-01-19T02:15:54.554Z,11.00
2023-01-19T02:18:23.669Z,11.20
2023-01-19T02:20:57.180Z,10.63
2023-01-19T02:23:45.416Z,11.87
2023-01-19T02:26:36.676Z,12.30
2023-01-19T02:29:09.563Z,11.60
2023-01-19T02:31:38.985Z,10.97
2023-01-19T02:34:08.204Z,12.47
2023-01-19T02:36:42.419Z,11.90
2023-01-19T02:39:10.854Z,12.10
2023-01-19T02:41:42.236Z,11.40
2023-01-19T02:44:10.220Z,12.13
2023-01-19T02:46:38.224Z,13.17
2023-01-19T02:49:04.918Z,12.87
2023-01-19T02:51:32.132Z,12.83
2023-01-19T02:54:04.643Z,11.77
2023-01-19T02:56:37.144Z,12.80
2023-01-19T02:59:28.495Z,12.30
2023-01-19T03:02:23.948Z,11.77
2023-01-19T03:05:25.974Z,11.63
2023-01-19T03:08:20.472Z,12.13
2023-01-19T03:10:59.069Z,12.00
2023-01-19T03:13:41.914Z,12.70
2023-01-19T03:16:22.607Z,11.83
2023-01-19T03:18:56.206Z,13.23
2023-01-19T03:21:27.347Z,13.00
2023-01-19T03:23:58.725Z,12.90
2023-01-19T03:26:29.736Z,13.17
2023-01-19T03:28:59.498Z,13.20
2023-01-19T03:31:28.892Z,12.57
2023-01-19T03:33:59.733Z,12.10
2023-01-19T03:36:36.671Z,13.43
2023-01-19T03:39:05.783Z,11.47
2023-01-19T03:41:34.337Z,12.60
2023-01-19T03:44:01.303Z,13.67
2023-01-19T03:46:28.396Z,13.60
2023-01-19T03:48:55.269Z,12.60
2023-01-19T03:51:21.973Z,12.37
2023-01-19T03:53:50.025Z,12.73
2023-01-19T03:56:25.566Z,14.23
2023-01-19T03:58:52.451Z,11.67
2023-01-19T04:01:22.934Z,12.73
2023-01-19T04:03:50.835Z,13.70
2023-01-19T04:06:18.316Z,13.93
2023-01-19T04:08:45.071Z,12.73
2023-01-19T04:11:12.168Z,15.17
2023-01-19T04:13:38.680Z,14.60
2023-01-19T04:16:05.559Z,13.77
2023-01-19T04:18:34.723Z,14.40
2023-01-19T04:21:03.256Z,13.57
2023-01-19T04:23:30.283Z,14.97
2023-01-19T04:26:03.024Z,14.10
2023-01-19T04:28:29.913Z,16.50
2023-01-19T04:30:56.470Z,15.23
2023-01-19T04:33:23.116Z,15.57
2023-01-19T04:35:52.297Z,14.17
2023-01-19T04:38:20.693Z,15.60
2023-01-19T04:40:48.841Z,15.60
2023-01-19T04:43:15.286Z,14.93
2023-01-19T04:45:41.618Z,16.37
2023-01-19T04:48:08.021Z,16.20
2023-01-19T04:50:34.417Z,14.13
2023-01-19T04:53:01.229Z,14.57
2023-01-19T04:55:27.811Z,16.00
2023-01-19T04:57:54.267Z,15.80
2023-01-19T05:00:21.094Z,13.03
2023-01-19T05:02:47.716Z,14.87
2023-01-19T05:05:14.137Z,14.17
2023-01-19T05:07:40.773Z,14.93
2023-01-19T05:10:07.745Z,14.07
2023-01-19T05:12:34.153Z,15.87
2023-01-19T05:15:01.670Z,15.00
2023-01-19T05:17:28.202Z,13.33
2023-01-19T05:19:54.777Z,14.33
2023-01-19T05:22:21.242Z,13.20
2023-01-19T05:24:47.607Z,13.03
2023-01-19T05:27:13.946Z,14.20
2023-01-19T05:29:40.436Z,15.07
2023-01-19T05:32:06.815Z,14.40
2023-01-19T05:34:33.261Z,14.33
2023-01-19T05:36:59.598Z,13.63
2023-01-19T05:39:26.883Z,12.97
2023-01-19T05:41:53.245Z,14.23
2023-01-19T05:44:19.630Z,13.37
2023-01-19T05:46:46.185Z,14.70
2023-01-19T05:49:12.867Z,15.67
2023-01-19T05:51:40.345Z,12.27
2023-01-19T05:54:07.849Z,13.70
2023-01-19T05:56:35.489Z,14.20
2023-01-19T05:59:02.252Z,13.30
2023-01-19T06:01:28.788Z,13.50
2023-01-19T06:03:55.347Z,14.67
2023-01-19T06:06:21.757Z,14.03
2023-01-19T06:08:48.169Z,13.37
2023-01-19T06:11:14.529Z,13.37
2023-01-19T06:13:42.118Z,13.97
2023-01-19T06:16:08.956Z,13.90
2023-01-19T06:18:35.298Z,13.80
2023-01-19T06:21:06.297Z,10.93
2023-01-19T06:23:34.308Z,15.53
2023-01-19T06:26:01.686Z,16.50
2023-01-19T06:28:28.325Z,15.53
2023-01-19T06:30:56.064Z,13.83
2023-01-19T06:33:23.973Z,15.30
2023-01-19T06:35:51.564Z,14.20
2023-01-19T06:38:19.240Z,15.07
2023-01-19T06:40:51.769Z,16.20
2023-01-19T06:43:20.388Z,15.83
2023-01-19T06:45:47.270Z,15.27
2023-01-19T06:48:13.727Z,15.63
2023-01-19T06:50:40.753Z,15.27
2023-01-19T06:53:07.355Z,14.33
2023-01-19T06:55:35.680Z,15.63
2023-01-19T06:58:02.651Z,15.30
2023-01-19T07:00:29.638Z,15.77
2023-01-19T07:02:56.099Z,14.90
2023-01-19T07:05:22.897Z,16.17
2023-01-19T07:07:53.954Z,13.60
2023-01-19T07:10:21.684Z,15.43
2023-01-19T07:12:48.048Z,14.90
2023-01-19T07:15:16.338Z,14.53
2023-01-19T07:17:43.567Z,15.53
2023-01-19T07:20:14.252Z,15.60
2023-01-19T07:22:45.616Z,16.23
2023-01-19T07:25:13.644Z,16.03
2023-01-19T07:27:40.476Z,16.93
2023-01-19T07:30:08.373Z,15.13
2023-01-19T07:32:35.780Z,15.20
2023-01-19T07:35:02.270Z,16.30
2023-01-19T07:37:28.831Z,16.37
2023-01-19T07:39:55.182Z,17.37
2023-01-19T07:42:21.592Z,16.50
2023-01-19T07:44:47.911Z,15.97
2023-01-19T07:47:14.442Z,17.10
2023-01-19T07:49:41.249Z,17.70
2023-01-19T07:52:07.628Z,16.33
2023-01-19T07:54:34.042Z,17.17
2023-01-19T07:57:03.241Z,17.43
2023-01-19T07:59:30.936Z,17.30
2023-01-19T08:01:59.362Z,17.97
2023-01-19T08:04:26.977Z,18.30
2023-01-19T08:06:54.018Z,19.10
2023-01-19T08:09:20.661Z,17.67
2023-01-19T08:11:47.122Z,18.10
2023-01-19T08:14:13.521Z,18.27
2023-01-19T08:16:40.039Z,19.27
2023-01-19T08:19:06.433Z,16.67
2023-01-19T08:21:33.328Z,18.13
2023-01-19T08:24:02.476Z,17.10
2023-01-19T08:26:34.354Z,17.00
2023-01-19T08:29:03.295Z,16.70
2023-01-19T08:31:30.387Z,16.50
2023-01-19T08:33:57.068Z,17.37
2023-01-19T08:36:24.960Z,16.77
2023-01-19T08:38:51.659Z,15.63
2023-01-19T08:41:18.225Z,17.07
2023-01-19T08:43:45.353Z,15.60
2023-01-19T08:46:12.705Z,17.10
2023-01-19T08:48:39.995Z,16.83
2023-01-19T08:51:06.594Z,16.03
2023-01-19T08:53:32.970Z,16.27
2023-01-19T08:56:02.532Z,15.90
2023-01-19T08:58:28.998Z,16.13
2023-01-19T09:00:55.886Z,17.13
2023-01-19T09:03:25.244Z,16.90
2023-01-19T09:05:51.617Z,17.67
2023-01-19T09:08:18.086Z,16.63
2023-01-19T09:10:49.595Z,15.80
2023-01-19T09:13:17.232Z,16.13
2023-01-19T09:15:43.880Z,15.93
2023-01-19T09:18:16.152Z,18.80
2023-01-19T09:20:47.332Z,15.93
2023-01-19T09:23:16.075Z,16.93
2023-01-19T09:25:44.061Z,17.57
2023-01-19T09:28:12.729Z,16.53
2023-01-19T09:30:40.706Z,17.57
2023-01-19T09:33:12.112Z,15.83
2023-01-19T09:35:39.868Z,16.90
2023-01-19T09:38:09.005Z,15.47
2023-01-19T09:40:42.210Z,16.37
2023-01-19T09:43:16.577Z,16.40
2023-01-19T09:45:50.190Z,16.03
2023-01-19T09:48:42.216Z,16.43
2023-01-19T09:51:14.038Z,17.17
2023-01-19T09:54:00.065Z,17.77
2023-01-19T09:56:30.719Z,16.47
2023-01-19T09:58:58.459Z,16.10
2023-01-19T10:01:59.077Z,15.60
2023-01-19T10:04:31.335Z,17.30
2023-01-19T10:07:25.053Z,17.63
2023-01-19T10:09:51.379Z,16.03
2023-01-19T10:12:56.612Z,17.33
2023-01-19T10:15:31.545Z,15.83
2023-01-19T10:18:22.645Z,17.63
2023-01-19T10:20:59.827Z,15.40
2023-01-19T10:23:39.380Z,16.10
2023-01-19T10:26:23.003Z,16.67
2023-01-19T10:28:53.805Z,16.60
2023-01-19T10:31:24.196Z,16.27
2023-01-19T10:33:51.381Z,16.40
2023-01-19T10:36:28.114Z,17.40
2023-01-19T10:38:54.559Z,17.03
2023-01-19T10:41:31.523Z,16.20
2023-01-19T10:44:04.391Z,16.87
2023-01-19T10:46:37.337Z,16.50
2023-01-19T10:49:04.060Z,15.37
2023-01-19T10:51:30.591Z,16.67
2023-01-19T10:54:00.289Z,17.07
2023-01-19T10:56:32.553Z,16.10
2023-01-19T10:59:00.741Z,15.80
2023-01-19T11:01:30.437Z,16.63
2023-01-19T11:04:05.328Z,16.07
2023-01-19T11:06:33.802Z,16.60
2023-01-19T11:09:18.159Z,15.73
2023-01-19T11:11:48.129Z,16.43
2023-01-19T11:14:18.901Z,15.73
2023-01-19T11:16:48.207Z,15.30
2023-01-19T11:19:21.495Z,16.20
2023-01-19T11:21:49.057Z,15.43
2023-01-19T11:24:16.527Z,14.90
2023-01-19T11:26:49.903Z,15.47
2023-01-19T11:29:23.653Z,15.53
2023-01-19T11:31:51.415Z,16.60
2023-01-19T11:34:43.888Z,15.50
2023-01-19T11:37:15.937Z,15.47
2023-01-19T11:39:51.112Z,15.57
2023-01-19T11:42:18.750Z,15.77
2023-01-19T11:44:55.856Z,16.60
2023-01-19T11:47:29.146Z,15.73
2023-01-19T11:50:12.009Z,17.43
2023-01-19T11:53:04.457Z,17.33
2023-01-19T11:55:39.669Z,16.17
2023-01-19T11:58:06.434Z,16.30
2023-01-19T12:00:44.391Z,15.23
2023-01-19T12:03:23.956Z,15.93
2023-01-19T12:05:55.251Z,16.20
2023-01-19T12:08:56.221Z,15.57
2023-01-19T12:11:31.544Z,15.80
2023-01-19T12:14:00.025Z,14.63
2023-01-19T12:16:30.145Z,15.47
2023-01-19T12:19:05.071Z,14.27
2023-01-19T12:21:31.462Z,14.50
2023-01-19T12:24:17.918Z,16.20
2023-01-19T12:26:56.124Z,15.63
2023-01-19T12:29:27.169Z,14.43
2023-01-19T12:32:16.636Z,14.87
2023-01-19T12:34:45.070Z,13.93
2023-01-19T12:37:37.977Z,13.73
2023-01-19T12:40:21.653Z,15.53
2023-01-19T12:43:05.327Z,14.43
2023-01-19T12:45:37.803Z,15.57
2023-01-19T12:48:05.382Z,15.87
2023-01-19T12:50:37.975Z,13.93
2023-01-19T12:53:15.631Z,14.07
2023-01-19T12:55:46.527Z,14.70
2023-01-19T12:58:21.285Z,14.17
2023-01-19T13:00:49.906Z,13.37
2023-01-19T13:03:16.269Z,12.70
2023-01-19T13:05:42.548Z,14.47
2023-01-19T13:08:08.870Z,13.43
2023-01-19T13:11:00.047Z,15.70
2023-01-19T13:13:37.880Z,13.87
2023-01-19T13:16:19.401Z,13.40
2023-01-19T13:19:01.746Z,12.80
2023-01-19T13:21:35.663Z,12.63
2023-01-19T13:24:05.222Z,13.00
2023-01-19T13:26:41.595Z,13.20
2023-01-19T13:29:15.567Z,15.00
2023-01-19T13:31:44.645Z,14.50
2023-01-19T13:34:18.381Z,12.23
2023-01-19T13:36:49.569Z,13.37
2023-01-19T13:39:21.746Z,13.40
2023-01-19T13:41:52.553Z,13.30
2023-01-19T13:44:25.000Z,13.70
2023-01-19T13:46:53.059Z,13.47
2023-01-19T13:49:34.638Z,12.33
2023-01-19T13:52:13.819Z,13.10
2023-01-19T13:54:54.394Z,14.17
2023-01-19T13:57:24.431Z,13.60
2023-01-19T14:00:12.033Z,12.70
2023-01-19T14:02:53.462Z,11.53
2023-01-19T14:05:40.523Z,12.13
2023-01-19T14:08:11.201Z,12.27
2023-01-19T14:10:43.284Z,11.37
2023-01-19T14:13:22.374Z,11.50
2023-01-19T14:15:50.689Z,12.07
2023-01-19T14:18:17.675Z,11.70
2023-01-19T14:21:11.350Z,10.93
2023-01-19T14:23:47.454Z,12.00
2023-01-19T14:26:47.600Z,12.10
2023-01-19T14:29:20.150Z,12.40
2023-01-19T14:32:10.033Z,11.20
2023-01-19T14:34:51.846Z,10.13
2023-01-19T14:37:30.213Z,11.13
2023-01-19T14:40:10.817Z,10.90
2023-01-19T14:42:44.536Z,11.30
2023-01-19T14:45:18.330Z,10.57
2023-01-19T14:47:52.304Z,11.23
2023-01-19T14:50:27.412Z,11.07
2023-01-19T14:53:21.294Z,10.33
2023-01-19T14:55:59.576Z,10.60
2023-01-19T14:58:27.409Z,10.60
2023-01-19T15:00:56.998Z,10.63
2023-01-19T15:03:31.977Z,9.50
2023-01-19T15:06:15.315Z,10.40
2023-01-19T15:08:42.083Z,9.73
2023-01-19T15:11:29.646Z,9.73
2023-01-19T15:13:56.056Z,9.53
2023-01-19T15:16:23.663Z,9.80
2023-01-19T15:18:50.086Z,9.33
2023-01-19T15:21:20.033Z,10.10
2023-01-19T15:23:47.453Z,10.37
2023-01-19T15:26:17.139Z,9.43
2023-01-19T15:28:44.467Z,9.07
2023-01-19T15:31:16.957Z,9.90
2023-01-19T15:33:43.712Z,8.70
2023-01-19T15:36:18.482Z,8.17
2023-01-19T15:38:45.704Z,9.03
2023-01-19T15:41:17.860Z,7.57
2023-01-19T15:43:44.240Z,7.60
2023-01-19T15:46:15.474Z,6.70
2023-01-19T15:48:42.461Z,6.57
2023-01-19T15:51:15.478Z,6.33
2023-01-19T15:53:42.593Z,4.00
2023-01-19T15:56:30.790Z,5.07
2023-01-19T15:58:58.671Z,4.53
2023-01-19T16:01:34.777Z,3.50
2023-01-19T16:04:04.082Z,3.63
2023-01-19T16:06:31.444Z,4.10
2023-01-19T16:09:01.581Z,3.83
2023-01-19T16:11:30.720Z,3.30
2023-01-19T16:13:57.241Z,2.47
2023-01-19T16:16:25.141Z,2.67
2023-01-19T16:18:51.865Z,3.90
2023-01-19T16:21:18.537Z,2.87
2023-01-19T16:23:44.878Z,2.70
2023-01-19T16:26:30.854Z,2.37
2023-01-19T16:28:58.856Z,3.30
2023-01-19T16:31:25.429Z,2.60
2023-01-19T16:33:51.806Z,2.37
2023-01-19T16:36:24.282Z,2.40
2023-01-19T16:38:50.875Z,2.40
2023-01-19T16:41:17.669Z,2.73
2023-01-19T16:43:44.487Z,4.27
2023-01-19T16:46:25.785Z,6.30
2023-01-19T16:48:52.641Z,3.00
2023-01-19T16:51:19.794Z,2.57
2023-01-19T16:53:48.407Z,2.40
2023-01-19T16:56:14.952Z,3.03
2023-01-19T16:58:41.911Z,3.13
2023-01-19T17:01:17.299Z,6.53
2023-01-19T17:03:45.711Z,8.90
2023-01-19T17:06:14.618Z,6.97
2023-01-19T17:08:41.351Z,4.87
2023-01-19T17:11:20.414Z,3.40
2023-01-19T17:13:47.750Z,3.50
2023-01-19T17:16:14.196Z,3.37
2023-01-19T17:18:40.768Z,3.90
2023-01-19T17:21:09.569Z,4.40
2023-01-19T17:23:37.418Z,3.27
2023-01-19T17:26:04.916Z,2.40
2023-01-19T17:28:31.296Z,2.60
2023-01-19T17:31:04.827Z,3.10
2023-01-19T17:33:31.239Z,2.60
2023-01-19T17:36:02.612Z,2.67
2023-01-19T17:38:28.937Z,4.30
2023-01-19T17:40:55.300Z,2.70
2023-01-19T17:43:21.668Z,2.37
2023-01-19T17:45:48.186Z,1.90
2023-01-19T17:48:14.617Z,2.50
2023-01-19T17:50:41.019Z,2.97
2023-01-19T17:53:07.354Z,3.20
2023-01-19T17:55:34.652Z,4.10
2023-01-19T17:58:01.502Z,2.97
2023-01-19T18:00:28.249Z,3.10
2023-01-19T18:02:54.819Z,2.20
2023-01-19T18:05:23.058Z,2.23
2023-01-19T18:07:49.437Z,2.27
2023-01-19T18:10:16.593Z,2.37
2023-01-19T18:12:44.574Z,3.50
2023-01-19T18:15:11.613Z,2.87
2023-01-19T18:17:38.002Z,3.70
2023-01-19T18:20:05.349Z,2.73
2023-01-19T18:22:32.176Z,2.43
2023-01-19T18:24:58.680Z,2.00
2023-01-19T18:27:25.121Z,2.77
2023-01-19T18:29:51.502Z,2.67
2023-01-19T18:32:17.925Z,2.40
2023-01-19T18:34:44.387Z,2.10
2023-01-19T18:37:10.755Z,2.80
2023-01-19T18:39:37.127Z,2.80
2023-01-19T18:42:03.787Z,2.93
2023-01-19T18:44:30.336Z,4.40
2023-01-19T18:46:56.713Z,3.50
2023-01-19T18:49:23.169Z,3.37
2023-01-19T18:51:49.523Z,4.90
2023-01-19T18:54:17.518Z,4.70
2023-01-19T18:56:43.956Z,2.50
2023-01-19T18:59:10.687Z,2.23
2023-01-19T19:01:37.416Z,3.30
2023-01-19T19:04:04.027Z,2.00
2023-01-19T19:06:30.427Z,2.93
2023-01-19T19:08:59.269Z,2.90
2023-01-19T19:11:26.515Z,2.70
2023-01-19T19:13:59.429Z,2.30
2023-01-19T19:16:25.820Z,2.03
2023-01-19T19:18:52.285Z,2.23
2023-01-19T19:21:20.374Z,2.67
2023-01-19T19:23:51.975Z,3.10
2023-01-19T19:26:18.827Z,2.23
2023-01-19T19:28:46.753Z,3.47
2023-01-19T19:31:16.673Z,2.70
2023-01-19T19:33:43.083Z,2.30
2023-01-19T19:36:10.536Z,2.50
2023-01-19T19:38:37.012Z,2.93
2023-01-19T19:41:08.167Z,2.17
2023-01-19T19:43:35.855Z,2.10
2023-01-19T19:46:07.914Z,2.50
2023-01-19T19:48:34.695Z,2.30
2023-01-19T19:51:28.360Z,3.40
2023-01-19T19:53:57.484Z,2.70
2023-01-19T19:56:25.776Z,2.90
2023-01-19T19:58:54.464Z,2.13
2023-01-19T20:01:25.365Z,2.60
2023-01-19T20:03:53.422Z,2.93
2023-01-19T20:06:23.533Z,2.87
2023-01-19T20:08:52.090Z,3.53
2023-01-19T20:11:21.961Z,3.30
2023-01-19T20:13:49.311Z,3.00
2023-01-19T20:16:18.740Z,2.60
2023-01-19T20:18:48.548Z,2.20
2023-01-19T20:21:17.997Z,2.60
2023-01-19T20:23:45.125Z,2.77
2023-01-19T20:26:12.877Z,2.37
2023-01-19T20:28:39.663Z,2.20
2023-01-19T20:31:15.331Z,2.30
2023-01-19T20:33:42.447Z,2.10
2023-01-19T20:36:10.423Z,1.73
2023-01-19T20:38:38.134Z,2.17
2023-01-19T20:41:05.847Z,2.63
2023-01-19T20:43:32.209Z,2.00
2023-01-19T20:45:58.693Z,2.20
2023-01-19T20:48:25.344Z,1.70
2023-01-19T20:50:58.136Z,2.33
2023-01-19T20:53:24.484Z,2.23
2023-01-19T20:55:50.853Z,2.17
2023-01-19T20:58:17.200Z,2.13
2023-01-19T21:00:44.652Z,2.83
2023-01-19T21:03:11.036Z,1.77
2023-01-19T21:05:37.522Z,1.80
2023-01-19T21:08:04.124Z,1.80
2023-01-19T21:10:30.561Z,2.27
2023-01-19T21:12:57.208Z,1.80
2023-01-19T21:15:23.574Z,2.40
2023-01-19T21:17:49.909Z,1.97
2023-01-19T21:20:17.022Z,1.80
2023-01-19T21:22:43.357Z,1.70
2023-01-19T21:25:09.885Z,1.77
2023-01-19T21:27:36.216Z,2.07
2023-01-19T21:30:02.610Z,2.50
2023-01-19T21:32:29.319Z,2.20
2023-01-19T21:34:55.700Z,1.70
2023-01-19T21:37:22.253Z,1.70
2023-01-19T21:39:48.625Z,2.07
2023-01-19T21:42:15.369Z,1.73
2023-01-19T21:44:41.746Z,2.10
2023-01-19T21:47:09.851Z,2.33
2023-01-19T21:49:36.279Z,2.07
2023-01-19T21:52:02.841Z,1.97
2023-01-19T21:54:29.369Z,2.20
2023-01-19T21:56:55.721Z,2.50
2023-01-19T21:59:22.336Z,2.70
2023-01-19T22:01:48.829Z,2.50
2023-01-19T22:04:15.272Z,2.07
2023-01-19T22:06:41.598Z,2.03
2023-01-19T22:09:08.403Z,1.90
2023-01-19T22:11:34.865Z,2.23
2023-01-19T22:14:01.449Z,2.37
2023-01-19T22:16:28.773Z,1.97
2023-01-19T22:19:01.085Z,2.23
2023-01-19T22:21:30.791Z,2.60
2023-01-19T22:24:01.581Z,2.47
2023-01-19T22:26:29.561Z,2.23
2023-01-19T22:28:59.131Z,2.50
2023-01-19T22:31:26.879Z,2.50
2023-01-19T22:33:53.455Z,2.30
2023-01-19T22:36:25.051Z,2.50
2023-01-19T22:38:54.082Z,2.03
2023-01-19T22:41:23.523Z,2.33
2023-01-19T22:43:52.344Z,2.57
2023-01-19T22:46:20.240Z,2.60
2023-01-19T22:48:47.972Z,2.57
2023-01-19T22:51:15.648Z,2.37
2023-01-19T22:53:42.058Z,1.80
2023-01-19T22:56:22.091Z,2.13
2023-01-19T22:58:49.289Z,2.60
2023-01-19T23:01:30.619Z,3.30
2023-01-19T23:03:57.196Z,3.50
2023-01-19T23:06:29.077Z,2.80
2023-01-19T23:08:57.627Z,2.83
2023-01-19T23:11:26.433Z,3.63
2023-01-19T23:13:53.168Z,3.27
2023-01-19T23:16:20.127Z,2.90
2023-01-19T23:18:46.879Z,2.77
2023-01-19T23:21:16.057Z,2.47
2023-01-19T23:23:43.482Z,3.30
2023-01-19T23:26:12.822Z,2.70
2023-01-19T23:28:40.024Z,2.97
2023-01-19T23:31:31.465Z,3.13
2023-01-19T23:34:03.883Z,3.70
2023-01-19T23:36:32.663Z,3.00
2023-01-19T23:39:01.625Z,2.80
2023-01-19T23:41:30.335Z,2.90
2023-01-19T23:43:56.857Z,3.60
2023-01-19T23:46:23.252Z,3.70
2023-01-19T23:48:49.968Z,2.50
2023-01-19T23:51:25.257Z,3.20
2023-01-19T23:53:52.330Z,2.80
2023-01-19T23:56:21.713Z,3.23
2023-01-19T23:59:03.201Z,3.10
